sensor_id;sensor_type;location;lat;lon;timestamp;P1;durP1;ratioP1;P2;durP2;ratioP2
55202;SDS011;41077;52.956;6.796;2023-04-06T00:01:36;9.18;;;7.18;;
55202;SDS011;41077;52.956;6.796;2023-04-06T00:04:03;10.05;;;6.75;;
55202;SDS011;41077;52.956;6.796;2023-04-06T00:06:28;8.70;;;7.18;;
55202;SDS011;41077;52.956;6.796;2023-04-06T00:08:55;10.20;;;7.18;;
55202;SDS011;41077;52.956;6.796;2023-04-06T00:11:21;10.38;;;7.05;;
55202;SDS011;41077;52.956;6.796;2023-04-06T00:13:47;11.25;;;7.90;;
55202;SDS011;41077;52.956;6.796;2023-04-06T00:16:12;13.68;;;6.75;;
55202;SDS011;41077;52.956;6.796;2023-04-06T00:18:38;7.55;;;6.60;;
55202;SDS011;41077;52.956;6.796;2023-04-06T00:21:04;12.73;;;8.40;;
55202;SDS011;41077;52.956;6.796;2023-04-06T00:23:30;11.43;;;6.97;;
55202;SDS011;41077;52.956;6.796;2023-04-06T00:25:56;10.23;;;7.53;;
55202;SDS011;41077;52.956;6.796;2023-04-06T00:28:22;11.18;;;7.10;;
55202;SDS011;41077;52.956;6.796;2023-04-06T00:30:50;11.05;;;8.23;;
55202;SDS011;41077;52.956;6.796;2023-04-06T00:33:18;9.07;;;7.10;;
55202;SDS011;41077;52.956;6.796;2023-04-06T00:35:44;8.50;;;6.97;;
55202;SDS011;41077;52.956;6.796;2023-04-06T00:38:10;8.98;;;7.60;;
55202;SDS011;41077;52.956;6.796;2023-04-06T00:40:36;10.30;;;7.40;;
55202;SDS011;41077;52.956;6.796;2023-04-06T00:43:02;12.43;;;7.85;;
55202;SDS011;41077;52.956;6.796;2023-04-06T00:45:28;10.52;;;7.45;;
55202;SDS011;41077;52.956;6.796;2023-04-06T00:47:53;8.35;;;7.45;;
55202;SDS011;41077;52.956;6.796;2023-04-06T00:50:19;10.23;;;7.90;;
55202;SDS011;41077;52.956;6.796;2023-04-06T00:52:45;7.93;;;7.03;;
55202;SDS011;41077;52.956;6.796;2023-04-06T00:55:11;11.13;;;7.47;;
55202;SDS011;41077;52.956;6.796;2023-04-06T00:57:37;9.27;;;7.20;;
55202;SDS011;41077;52.956;6.796;2023-04-06T01:00:02;9.77;;;6.97;;
55202;SDS011;41077;52.956;6.796;2023-04-06T01:02:29;10.90;;;8.63;;
55202;SDS011;41077;52.956;6.796;2023-04-06T01:04:55;10.88;;;8.75;;
55202;SDS011;41077;52.956;6.796;2023-04-06T01:07:21;10.18;;;7.40;;
55202;SDS011;41077;52.956;6.796;2023-04-06T01:09:47;12.90;;;6.97;;
55202;SDS011;41077;52.956;6.796;2023-04-06T01:12:12;9.70;;;7.32;;
55202;SDS011;41077;52.956;6.796;2023-04-06T01:14:38;11.80;;;8.10;;
55202;SDS011;41077;52.956;6.796;2023-04-06T01:17:04;7.53;;;6.75;;
55202;SDS011;41077;52.956;6.796;2023-04-06T01:19:30;14.80;;;8.70;;
55202;SDS011;41077;52.956;6.796;2023-04-06T01:21:55;12.02;;;8.00;;
55202;SDS011;41077;52.956;6.796;2023-04-06T01:24:21;11.43;;;8.63;;
55202;SDS011;41077;52.956;6.796;2023-04-06T01:26:47;10.10;;;7.85;;
55202;SDS011;41077;52.956;6.796;2023-04-06T01:29:13;14.32;;;8.27;;
55202;SDS011;41077;52.956;6.796;2023-04-06T01:31:39;13.25;;;8.43;;
55202;SDS011;41077;52.956;6.796;2023-04-06T01:34:05;10.55;;;7.72;;
55202;SDS011;41077;52.956;6.796;2023-04-06T01:36:31;14.45;;;8.40;;
55202;SDS011;41077;52.956;6.796;2023-04-06T01:38:57;11.05;;;8.20;;
55202;SDS011;41077;52.956;6.796;2023-04-06T01:41:23;11.48;;;7.80;;
55202;SDS011;41077;52.956;6.796;2023-04-06T01:43:48;10.85;;;7.65;;
55202;SDS011;41077;52.956;6.796;2023-04-06T01:46:15;11.00;;;7.50;;
55202;SDS011;41077;52.956;6.796;2023-04-06T01:48:41;13.35;;;8.77;;
55202;SDS011;41077;52.956;6.796;2023-04-06T01:51:07;15.95;;;8.75;;
55202;SDS011;41077;52.956;6.796;2023-04-06T01:53:32;13.57;;;7.88;;
55202;SDS011;41077;52.956;6.796;2023-04-06T01:55:58;10.55;;;7.85;;
55202;SDS011;41077;52.956;6.796;2023-04-06T01:58:24;12.50;;;7.70;;
55202;SDS011;41077;52.956;6.796;2023-04-06T02:00:50;12.95;;;8.98;;
55202;SDS011;41077;52.956;6.796;2023-04-06T02:03:16;11.55;;;8.35;;
55202;SDS011;41077;52.956;6.796;2023-04-06T02:05:41;12.98;;;7.53;;
55202;SDS011;41077;52.956;6.796;2023-04-06T02:08:07;12.95;;;8.85;;
55202;SDS011;41077;52.956;6.796;2023-04-06T02:10:33;10.57;;;8.23;;
55202;SDS011;41077;52.956;6.796;2023-04-06T02:12:59;11.35;;;7.82;;
55202;SDS011;41077;52.956;6.796;2023-04-06T02:15:26;16.75;;;8.77;;
55202;SDS011;41077;52.956;6.796;2023-04-06T02:17:51;9.90;;;7.80;;
55202;SDS011;41077;52.956;6.796;2023-04-06T02:20:18;13.10;;;8.98;;
55202;SDS011;41077;52.956;6.796;2023-04-06T02:22:44;9.02;;;7.63;;
55202;SDS011;41077;52.956;6.796;2023-04-06T02:25:10;10.60;;;8.07;;
55202;SDS011;41077;52.956;6.796;2023-04-06T02:27:35;9.43;;;8.20;;
55202;SDS011;41077;52.956;6.796;2023-04-06T02:30:04;12.13;;;8.02;;
55202;SDS011;41077;52.956;6.796;2023-04-06T02:32:30;11.52;;;8.20;;
55202;SDS011;41077;52.956;6.796;2023-04-06T02:34:56;11.65;;;8.52;;
55202;SDS011;41077;52.956;6.796;2023-04-06T02:37:22;15.27;;;8.50;;
55202;SDS011;41077;52.956;6.796;2023-04-06T02:39:49;14.63;;;8.90;;
55202;SDS011;41077;52.956;6.796;2023-04-06T02:42:15;12.38;;;8.68;;
55202;SDS011;41077;52.956;6.796;2023-04-06T02:44:43;10.90;;;8.00;;
55202;SDS011;41077;52.956;6.796;2023-04-06T02:47:09;12.93;;;8.10;;
55202;SDS011;41077;52.956;6.796;2023-04-06T02:49:35;9.80;;;8.70;;
55202;SDS011;41077;52.956;6.796;2023-04-06T02:52:01;12.88;;;8.30;;
55202;SDS011;41077;52.956;6.796;2023-04-06T02:54:28;12.65;;;8.25;;
55202;SDS011;41077;52.956;6.796;2023-04-06T02:56:53;10.88;;;8.18;;
55202;SDS011;41077;52.956;6.796;2023-04-06T02:59:19;11.90;;;8.40;;
55202;SDS011;41077;52.956;6.796;2023-04-06T03:01:45;12.43;;;8.48;;
55202;SDS011;41077;52.956;6.796;2023-04-06T03:04:11;12.95;;;9.13;;
55202;SDS011;41077;52.956;6.796;2023-04-06T03:06:37;12.20;;;9.13;;
55202;SDS011;41077;52.956;6.796;2023-04-06T03:09:02;8.80;;;7.55;;
55202;SDS011;41077;52.956;6.796;2023-04-06T03:11:29;10.80;;;8.35;;
55202;SDS011;41077;52.956;6.796;2023-04-06T03:13:54;13.93;;;8.80;;
55202;SDS011;41077;52.956;6.796;2023-04-06T03:16:20;11.13;;;8.13;;
55202;SDS011;41077;52.956;6.796;2023-04-06T03:18:46;11.30;;;8.82;;
55202;SDS011;41077;52.956;6.796;2023-04-06T03:21:12;10.25;;;8.57;;
55202;SDS011;41077;52.956;6.796;2023-04-06T03:23:40;13.27;;;8.30;;
55202;SDS011;41077;52.956;6.796;2023-04-06T03:26:06;13.60;;;9.43;;
55202;SDS011;41077;52.956;6.796;2023-04-06T03:28:32;13.68;;;9.15;;
55202;SDS011;41077;52.956;6.796;2023-04-06T03:30:58;13.27;;;9.30;;
55202;SDS011;41077;52.956;6.796;2023-04-06T03:33:23;11.55;;;8.82;;
55202;SDS011;41077;52.956;6.796;2023-04-06T03:35:52;10.50;;;8.60;;
55202;SDS011;41077;52.956;6.796;2023-04-06T03:38:18;12.18;;;9.02;;
55202;SDS011;41077;52.956;6.796;2023-04-06T03:40:44;12.88;;;9.23;;
55202;SDS011;41077;52.956;6.796;2023-04-06T03:43:10;15.73;;;10.52;;
55202;SDS011;41077;52.956;6.796;2023-04-06T03:45:36;13.35;;;9.60;;
55202;SDS011;41077;52.956;6.796;2023-04-06T03:48:01;16.00;;;9.15;;
55202;SDS011;41077;52.956;6.796;2023-04-06T03:50:27;12.05;;;9.50;;
55202;SDS011;41077;52.956;6.796;2023-04-06T03:52:53;10.75;;;8.57;;
55202;SDS011;41077;52.956;6.796;2023-04-06T03:55:19;14.23;;;9.02;;
55202;SDS011;41077;52.956;6.796;2023-04-06T03:57:44;15.07;;;9.93;;
55202;SDS011;41077;52.956;6.796;2023-04-06T04:00:10;14.05;;;9.60;;
55202;SDS011;41077;52.956;6.796;2023-04-06T04:02:37;12.63;;;9.60;;
55202;SDS011;41077;52.956;6.796;2023-04-06T04:05:03;12.38;;;8.82;;
55202;SDS011;41077;52.956;6.796;2023-04-06T04:07:28;11.95;;;9.30;;
55202;SDS011;41077;52.956;6.796;2023-04-06T04:09:54;14.30;;;9.65;;
55202;SDS011;41077;52.956;6.796;2023-04-06T04:12:20;15.13;;;9.95;;
55202;SDS011;41077;52.956;6.796;2023-04-06T04:14:46;12.68;;;9.32;;
55202;SDS011;41077;52.956;6.796;2023-04-06T04:17:11;14.07;;;10.00;;
55202;SDS011;41077;52.956;6.796;2023-04-06T04:19:37;15.90;;;10.35;;
55202;SDS011;41077;52.956;6.796;2023-04-06T04:22:03;14.90;;;9.35;;
55202;SDS011;41077;52.956;6.796;2023-04-06T04:24:30;15.75;;;10.80;;
55202;SDS011;41077;52.956;6.796;2023-04-06T04:26:56;13.35;;;10.35;;
55202;SDS011;41077;52.956;6.796;2023-04-06T04:29:22;14.88;;;10.80;;
55202;SDS011;41077;52.956;6.796;2023-04-06T04:31:48;13.70;;;10.25;;
55202;SDS011;41077;52.956;6.796;2023-04-06T04:34:15;11.60;;;10.20;;
55202;SDS011;41077;52.956;6.796;2023-04-06T04:36:41;11.48;;;9.35;;
55202;SDS011;41077;52.956;6.796;2023-04-06T04:39:07;13.73;;;11.23;;
55202;SDS011;41077;52.956;6.796;2023-04-06T04:41:33;12.57;;;9.80;;
55202;SDS011;41077;52.956;6.796;2023-04-06T04:43:59;11.73;;;10.30;;
55202;SDS011;41077;52.956;6.796;2023-04-06T04:46:25;13.05;;;9.93;;
55202;SDS011;41077;52.956;6.796;2023-04-06T04:48:50;13.48;;;10.98;;
55202;SDS011;41077;52.956;6.796;2023-04-06T04:51:16;17.02;;;10.50;;
55202;SDS011;41077;52.956;6.796;2023-04-06T04:53:42;17.92;;;10.85;;
55202;SDS011;41077;52.956;6.796;2023-04-06T04:56:07;14.57;;;11.68;;
55202;SDS011;41077;52.956;6.796;2023-04-06T04:58:33;14.38;;;10.00;;
55202;SDS011;41077;52.956;6.796;2023-04-06T05:00:59;15.95;;;11.00;;
55202;SDS011;41077;52.956;6.796;2023-04-06T05:03:25;15.73;;;11.00;;
55202;SDS011;41077;52.956;6.796;2023-04-06T05:05:51;16.73;;;11.38;;
55202;SDS011;41077;52.956;6.796;2023-04-06T05:08:18;19.02;;;11.40;;
55202;SDS011;41077;52.956;6.796;2023-04-06T05:10:43;15.75;;;12.27;;
55202;SDS011;41077;52.956;6.796;2023-04-06T05:13:10;16.90;;;11.27;;
55202;SDS011;41077;52.956;6.796;2023-04-06T05:15:36;14.90;;;10.57;;
55202;SDS011;41077;52.956;6.796;2023-04-06T05:18:05;14.23;;;10.75;;
55202;SDS011;41077;52.956;6.796;2023-04-06T05:20:32;15.65;;;11.95;;
55202;SDS011;41077;52.956;6.796;2023-04-06T05:22:58;12.00;;;10.70;;
55202;SDS011;41077;52.956;6.796;2023-04-06T05:25:24;13.10;;;10.60;;
55202;SDS011;41077;52.956;6.796;2023-04-06T05:27:50;15.98;;;11.25;;
55202;SDS011;41077;52.956;6.796;2023-04-06T05:30:16;14.32;;;10.25;;
55202;SDS011;41077;52.956;6.796;2023-04-06T05:32:41;12.63;;;11.02;;
55202;SDS011;41077;52.956;6.796;2023-04-06T05:35:09;14.07;;;10.88;;
55202;SDS011;41077;52.956;6.796;2023-04-06T05:37:35;14.15;;;11.40;;
55202;SDS011;41077;52.956;6.796;2023-04-06T05:40:01;16.63;;;10.73;;
55202;SDS011;41077;52.956;6.796;2023-04-06T05:42:27;17.58;;;12.10;;
55202;SDS011;41077;52.956;6.796;2023-04-06T05:45:01;14.25;;;10.85;;
55202;SDS011;41077;52.956;6.796;2023-04-06T05:47:27;14.57;;;11.05;;
55202;SDS011;41077;52.956;6.796;2023-04-06T05:49:53;14.10;;;11.00;;
55202;SDS011;41077;52.956;6.796;2023-04-06T05:52:18;17.33;;;11.23;;
55202;SDS011;41077;52.956;6.796;2023-04-06T05:54:44;16.35;;;11.02;;
55202;SDS011;41077;52.956;6.796;2023-04-06T05:57:10;15.55;;;12.20;;
55202;SDS011;41077;52.956;6.796;2023-04-06T05:59:36;17.58;;;12.07;;
55202;SDS011;41077;52.956;6.796;2023-04-06T06:02:01;15.75;;;11.77;;
55202;SDS011;41077;52.956;6.796;2023-04-06T06:04:27;20.55;;;12.35;;
55202;SDS011;41077;52.956;6.796;2023-04-06T06:06:53;17.25;;;10.73;;
55202;SDS011;41077;52.956;6.796;2023-04-06T06:09:18;14.85;;;11.82;;
55202;SDS011;41077;52.956;6.796;2023-04-06T06:11:44;15.63;;;11.07;;
55202;SDS011;41077;52.956;6.796;2023-04-06T06:14:10;12.38;;;10.98;;
55202;SDS011;41077;52.956;6.796;2023-04-06T06:16:36;21.85;;;11.40;;
55202;SDS011;41077;52.956;6.796;2023-04-06T06:19:01;13.52;;;12.07;;
55202;SDS011;41077;52.956;6.796;2023-04-06T06:21:27;13.68;;;11.95;;
55202;SDS011;41077;52.956;6.796;2023-04-06T06:23:53;12.43;;;10.93;;
55202;SDS011;41077;52.956;6.796;2023-04-06T06:26:19;19.45;;;13.02;;
55202;SDS011;41077;52.956;6.796;2023-04-06T06:28:45;16.75;;;12.30;;
55202;SDS011;41077;52.956;6.796;2023-04-06T06:31:11;15.88;;;10.88;;
55202;SDS011;41077;52.956;6.796;2023-04-06T06:33:37;16.00;;;11.80;;
55202;SDS011;41077;52.956;6.796;2023-04-06T06:36:03;16.75;;;11.40;;
55202;SDS011;41077;52.956;6.796;2023-04-06T06:38:28;18.27;;;12.02;;
55202;SDS011;41077;52.956;6.796;2023-04-06T06:40:54;14.43;;;11.48;;
55202;SDS011;41077;52.956;6.796;2023-04-06T06:43:20;12.82;;;10.95;;
55202;SDS011;41077;52.956;6.796;2023-04-06T06:45:46;18.55;;;12.40;;
55202;SDS011;41077;52.956;6.796;2023-04-06T06:48:11;18.00;;;11.65;;
55202;SDS011;41077;52.956;6.796;2023-04-06T06:50:37;15.23;;;11.48;;
55202;SDS011;41077;52.956;6.796;2023-04-06T06:53:03;16.48;;;12.70;;
55202;SDS011;41077;52.956;6.796;2023-04-06T06:55:29;16.20;;;11.93;;
55202;SDS011;41077;52.956;6.796;2023-04-06T06:57:55;18.48;;;12.63;;
55202;SDS011;41077;52.956;6.796;2023-04-06T07:00:20;20.00;;;12.57;;
55202;SDS011;41077;52.956;6.796;2023-04-06T07:02:47;20.60;;;12.18;;
55202;SDS011;41077;52.956;6.796;2023-04-06T07:05:13;13.05;;;10.75;;
55202;SDS011;41077;52.956;6.796;2023-04-06T07:07:39;15.18;;;11.38;;
55202;SDS011;41077;52.956;6.796;2023-04-06T07:10:05;12.57;;;10.98;;
55202;SDS011;41077;52.956;6.796;2023-04-06T07:12:31;22.08;;;13.20;;
55202;SDS011;41077;52.956;6.796;2023-04-06T07:14:57;15.73;;;11.85;;
55202;SDS011;41077;52.956;6.796;2023-04-06T07:17:22;13.13;;;11.10;;
55202;SDS011;41077;52.956;6.796;2023-04-06T07:19:48;18.30;;;12.13;;
55202;SDS011;41077;52.956;6.796;2023-04-06T07:22:14;17.38;;;12.38;;
55202;SDS011;41077;52.956;6.796;2023-04-06T07:24:40;21.52;;;12.73;;
55202;SDS011;41077;52.956;6.796;2023-04-06T07:27:06;22.73;;;12.90;;
55202;SDS011;41077;52.956;6.796;2023-04-06T07:29:32;20.90;;;12.27;;
55202;SDS011;41077;52.956;6.796;2023-04-06T07:31:57;14.45;;;12.77;;
55202;SDS011;41077;52.956;6.796;2023-04-06T07:34:23;13.68;;;11.73;;
55202;SDS011;41077;52.956;6.796;2023-04-06T07:36:49;19.02;;;12.75;;
55202;SDS011;41077;52.956;6.796;2023-04-06T07:39:15;18.75;;;12.07;;
55202;SDS011;41077;52.956;6.796;2023-04-06T07:41:40;14.77;;;12.25;;
55202;SDS011;41077;52.956;6.796;2023-04-06T07:44:06;15.15;;;11.75;;
55202;SDS011;41077;52.956;6.796;2023-04-06T07:46:32;15.57;;;11.70;;
55202;SDS011;41077;52.956;6.796;2023-04-06T07:48:59;16.48;;;12.70;;
55202;SDS011;41077;52.956;6.796;2023-04-06T07:51:26;15.43;;;12.45;;
55202;SDS011;41077;52.956;6.796;2023-04-06T07:53:51;15.02;;;12.30;;
55202;SDS011;41077;52.956;6.796;2023-04-06T07:56:17;15.95;;;13.70;;
55202;SDS011;41077;52.956;6.796;2023-04-06T07:58:43;15.60;;;12.70;;
55202;SDS011;41077;52.956;6.796;2023-04-06T08:01:09;18.15;;;13.00;;
55202;SDS011;41077;52.956;6.796;2023-04-06T08:03:35;18.02;;;13.35;;
55202;SDS011;41077;52.956;6.796;2023-04-06T08:06:02;20.25;;;13.32;;
55202;SDS011;41077;52.956;6.796;2023-04-06T08:08:28;13.48;;;12.05;;
55202;SDS011;41077;52.956;6.796;2023-04-06T08:10:53;18.48;;;12.75;;
55202;SDS011;41077;52.956;6.796;2023-04-06T08:13:19;33.60;;;13.32;;
55202;SDS011;41077;52.956;6.796;2023-04-06T08:15:46;24.30;;;12.73;;
55202;SDS011;41077;52.956;6.796;2023-04-06T08:18:12;16.77;;;12.20;;
55202;SDS011;41077;52.956;6.796;2023-04-06T08:20:38;16.75;;;11.75;;
55202;SDS011;41077;52.956;6.796;2023-04-06T08:23:04;15.63;;;11.90;;
55202;SDS011;41077;52.956;6.796;2023-04-06T08:25:31;20.83;;;12.50;;
55202;SDS011;41077;52.956;6.796;2023-04-06T08:27:58;19.77;;;12.13;;
55202;SDS011;41077;52.956;6.796;2023-04-06T08:30:24;16.33;;;11.95;;
55202;SDS011;41077;52.956;6.796;2023-04-06T08:32:50;14.05;;;11.48;;
55202;SDS011;41077;52.956;6.796;2023-04-06T08:35:16;15.88;;;12.50;;
55202;SDS011;41077;52.956;6.796;2023-04-06T08:37:42;14.10;;;12.30;;
55202;SDS011;41077;52.956;6.796;2023-04-06T08:40:07;17.52;;;13.10;;
55202;SDS011;41077;52.956;6.796;2023-04-06T08:42:33;15.27;;;12.35;;
55202;SDS011;41077;52.956;6.796;2023-04-06T08:45:05;14.88;;;12.02;;
55202;SDS011;41077;52.956;6.796;2023-04-06T08:47:31;14.93;;;11.80;;
55202;SDS011;41077;52.956;6.796;2023-04-06T08:49:59;18.02;;;12.90;;
55202;SDS011;41077;52.956;6.796;2023-04-06T08:52:29;16.00;;;11.63;;
55202;SDS011;41077;52.956;6.796;2023-04-06T08:54:57;18.17;;;10.77;;
55202;SDS011;41077;52.956;6.796;2023-04-06T08:57:23;13.55;;;10.95;;
55202;SDS011;41077;52.956;6.796;2023-04-06T08:59:51;14.40;;;11.40;;
55202;SDS011;41077;52.956;6.796;2023-04-06T09:02:17;66.03;;;15.55;;
55202;SDS011;41077;52.956;6.796;2023-04-06T09:04:45;53.55;;;13.85;;
55202;SDS011;41077;52.956;6.796;2023-04-06T09:07:13;20.38;;;12.32;;
55202;SDS011;41077;52.956;6.796;2023-04-06T09:09:40;14.45;;;10.77;;
55202;SDS011;41077;52.956;6.796;2023-04-06T09:12:21;12.95;;;10.93;;
55202;SDS011;41077;52.956;6.796;2023-04-06T09:14:51;16.35;;;11.57;;
55202;SDS011;41077;52.956;6.796;2023-04-06T09:17:24;24.13;;;11.23;;
55202;SDS011;41077;52.956;6.796;2023-04-06T09:19:51;18.60;;;11.95;;
55202;SDS011;41077;52.956;6.796;2023-04-06T09:22:17;17.00;;;12.77;;
55202;SDS011;41077;52.956;6.796;2023-04-06T09:24:44;24.83;;;11.85;;
55202;SDS011;41077;52.956;6.796;2023-04-06T09:27:11;19.42;;;12.10;;
55202;SDS011;41077;52.956;6.796;2023-04-06T09:29:38;18.23;;;11.00;;
55202;SDS011;41077;52.956;6.796;2023-04-06T09:32:04;17.02;;;12.52;;
55202;SDS011;41077;52.956;6.796;2023-04-06T09:34:31;18.83;;;11.90;;
55202;SDS011;41077;52.956;6.796;2023-04-06T09:36:57;17.50;;;12.02;;
55202;SDS011;41077;52.956;6.796;2023-04-06T09:39:23;16.48;;;11.07;;
55202;SDS011;41077;52.956;6.796;2023-04-06T09:41:53;21.55;;;11.48;;
55202;SDS011;41077;52.956;6.796;2023-04-06T09:44:19;19.95;;;12.60;;
55202;SDS011;41077;52.956;6.796;2023-04-06T09:46:45;22.00;;;12.18;;
55202;SDS011;41077;52.956;6.796;2023-04-06T09:49:12;15.57;;;11.95;;
55202;SDS011;41077;52.956;6.796;2023-04-06T09:54:18;17.67;;;12.55;;
55202;SDS011;41077;52.956;6.796;2023-04-06T09:56:47;189.23;;;33.38;;
55202;SDS011;41077;52.956;6.796;2023-04-06T09:59:31;20.77;;;14.45;;
55202;SDS011;41077;52.956;6.796;2023-04-06T10:02:08;23.52;;;14.38;;
55202;SDS011;41077;52.956;6.796;2023-04-06T10:08:05;23.80;;;14.70;;
55202;SDS011;41077;52.956;6.796;2023-04-06T10:10:33;22.88;;;15.38;;
55202;SDS011;41077;52.956;6.796;2023-04-06T10:12:58;19.10;;;15.07;;
55202;SDS011;41077;52.956;6.796;2023-04-06T10:15:25;22.92;;;15.68;;
55202;SDS011;41077;52.956;6.796;2023-04-06T10:17:54;26.75;;;17.00;;
55202;SDS011;41077;52.956;6.796;2023-04-06T10:20:22;22.13;;;15.40;;
55202;SDS011;41077;52.956;6.796;2023-04-06T10:23:01;23.50;;;16.58;;
55202;SDS011;41077;52.956;6.796;2023-04-06T10:25:33;22.73;;;16.90;;
55202;SDS011;41077;52.956;6.796;2023-04-06T10:28:05;18.80;;;15.23;;
55202;SDS011;41077;52.956;6.796;2023-04-06T10:30:37;22.33;;;16.52;;
55202;SDS011;41077;52.956;6.796;2023-04-06T10:33:14;23.42;;;16.60;;
55202;SDS011;41077;52.956;6.796;2023-04-06T10:35:40;23.25;;;17.05;;
55202;SDS011;41077;52.956;6.796;2023-04-06T10:38:06;21.85;;;16.50;;
55202;SDS011;41077;52.956;6.796;2023-04-06T10:40:35;25.52;;;16.40;;
55202;SDS011;41077;52.956;6.796;2023-04-06T10:43:08;21.98;;;16.17;;
55202;SDS011;41077;52.956;6.796;2023-04-06T10:45:35;25.17;;;16.90;;
55202;SDS011;41077;52.956;6.796;2023-04-06T10:48:12;27.55;;;17.23;;
55202;SDS011;41077;52.956;6.796;2023-04-06T10:50:39;20.83;;;16.77;;
55202;SDS011;41077;52.956;6.796;2023-04-06T10:53:05;27.88;;;17.70;;
55202;SDS011;41077;52.956;6.796;2023-04-06T10:55:31;21.52;;;16.83;;
55202;SDS011;41077;52.956;6.796;2023-04-06T10:57:57;23.17;;;16.40;;
55202;SDS011;41077;52.956;6.796;2023-04-06T11:00:23;21.58;;;16.02;;
55202;SDS011;41077;52.956;6.796;2023-04-06T11:02:49;20.95;;;17.08;;
55202;SDS011;41077;52.956;6.796;2023-04-06T11:05:15;28.02;;;18.25;;
55202;SDS011;41077;52.956;6.796;2023-04-06T11:07:41;25.67;;;18.58;;
55202;SDS011;41077;52.956;6.796;2023-04-06T11:10:07;29.25;;;19.38;;
55202;SDS011;41077;52.956;6.796;2023-04-06T11:12:33;23.60;;;17.40;;
55202;SDS011;41077;52.956;6.796;2023-04-06T11:15:00;30.08;;;20.13;;
55202;SDS011;41077;52.956;6.796;2023-04-06T11:17:34;27.52;;;19.10;;
55202;SDS011;41077;52.956;6.796;2023-04-06T11:20:02;30.50;;;19.15;;
55202;SDS011;41077;52.956;6.796;2023-04-06T11:22:30;28.42;;;20.20;;
55202;SDS011;41077;52.956;6.796;2023-04-06T11:25:05;27.92;;;20.85;;
55202;SDS011;41077;52.956;6.796;2023-04-06T11:27:33;29.85;;;20.33;;
55202;SDS011;41077;52.956;6.796;2023-04-06T11:29:59;32.30;;;21.15;;
55202;SDS011;41077;52.956;6.796;2023-04-06T11:32:26;28.48;;;19.20;;
55202;SDS011;41077;52.956;6.796;2023-04-06T11:34:52;32.65;;;23.40;;
55202;SDS011;41077;52.956;6.796;2023-04-06T11:37:18;29.17;;;22.75;;
55202;SDS011;41077;52.956;6.796;2023-04-06T11:39:51;27.77;;;20.88;;
55202;SDS011;41077;52.956;6.796;2023-04-06T11:42:23;27.05;;;18.92;;
55202;SDS011;41077;52.956;6.796;2023-04-06T11:44:59;27.92;;;20.70;;
55202;SDS011;41077;52.956;6.796;2023-04-06T11:47:29;31.50;;;22.23;;
55202;SDS011;41077;52.956;6.796;2023-04-06T11:50:05;29.77;;;22.67;;
55202;SDS011;41077;52.956;6.796;2023-04-06T11:52:31;30.30;;;23.13;;
55202;SDS011;41077;52.956;6.796;2023-04-06T11:54:57;33.60;;;21.98;;
55202;SDS011;41077;52.956;6.796;2023-04-06T11:57:23;30.10;;;21.80;;
55202;SDS011;41077;52.956;6.796;2023-04-06T11:59:50;30.23;;;23.58;;
55202;SDS011;41077;52.956;6.796;2023-04-06T12:02:16;31.85;;;21.63;;
55202;SDS011;41077;52.956;6.796;2023-04-06T12:04:43;29.13;;;21.02;;
55202;SDS011;41077;52.956;6.796;2023-04-06T12:07:09;28.08;;;22.95;;
55202;SDS011;41077;52.956;6.796;2023-04-06T12:09:34;32.88;;;22.88;;
55202;SDS011;41077;52.956;6.796;2023-04-06T12:12:02;29.05;;;21.75;;
55202;SDS011;41077;52.956;6.796;2023-04-06T12:14:28;31.88;;;22.58;;
55202;SDS011;41077;52.956;6.796;2023-04-06T12:16:56;32.35;;;22.63;;
55202;SDS011;41077;52.956;6.796;2023-04-06T12:19:22;29.30;;;23.25;;
55202;SDS011;41077;52.956;6.796;2023-04-06T12:21:51;31.02;;;22.13;;
55202;SDS011;41077;52.956;6.796;2023-04-06T12:24:17;30.80;;;22.42;;
55202;SDS011;41077;52.956;6.796;2023-04-06T12:26:43;38.40;;;24.25;;
55202;SDS011;41077;52.956;6.796;2023-04-06T12:29:09;31.58;;;22.15;;
55202;SDS011;41077;52.956;6.796;2023-04-06T12:31:35;31.85;;;23.95;;
55202;SDS011;41077;52.956;6.796;2023-04-06T12:34:02;33.72;;;23.17;;
55202;SDS011;41077;52.956;6.796;2023-04-06T12:36:28;30.90;;;23.45;;
55202;SDS011;41077;52.956;6.796;2023-04-06T12:38:54;31.45;;;23.63;;
55202;SDS011;41077;52.956;6.796;2023-04-06T12:41:20;29.23;;;23.00;;
55202;SDS011;41077;52.956;6.796;2023-04-06T12:43:46;33.25;;;22.77;;
55202;SDS011;41077;52.956;6.796;2023-04-06T12:46:13;35.28;;;24.00;;
55202;SDS011;41077;52.956;6.796;2023-04-06T12:48:39;31.17;;;22.30;;
55202;SDS011;41077;52.956;6.796;2023-04-06T12:51:05;30.58;;;22.95;;
55202;SDS011;41077;52.956;6.796;2023-04-06T12:53:31;32.70;;;23.98;;
55202;SDS011;41077;52.956;6.796;2023-04-06T12:55:58;36.30;;;25.08;;
55202;SDS011;41077;52.956;6.796;2023-04-06T12:58:24;32.35;;;23.02;;
55202;SDS011;41077;52.956;6.796;2023-04-06T13:00:51;37.45;;;24.50;;
55202;SDS011;41077;52.956;6.796;2023-04-06T13:03:21;29.23;;;20.83;;
55202;SDS011;41077;52.956;6.796;2023-04-06T13:05:48;30.85;;;22.67;;
55202;SDS011;41077;52.956;6.796;2023-04-06T13:08:14;35.10;;;24.52;;
55202;SDS011;41077;52.956;6.796;2023-04-06T13:10:44;30.52;;;23.75;;
55202;SDS011;41077;52.956;6.796;2023-04-06T13:13:16;33.72;;;23.13;;
55202;SDS011;41077;52.956;6.796;2023-04-06T13:15:42;33.80;;;23.63;;
55202;SDS011;41077;52.956;6.796;2023-04-06T13:18:09;33.03;;;23.85;;
55202;SDS011;41077;52.956;6.796;2023-04-06T13:20:35;29.88;;;21.50;;
55202;SDS011;41077;52.956;6.796;2023-04-06T13:23:01;33.25;;;22.75;;
55202;SDS011;41077;52.956;6.796;2023-04-06T13:25:27;33.78;;;22.63;;
55202;SDS011;41077;52.956;6.796;2023-04-06T13:27:54;33.88;;;22.52;;
55202;SDS011;41077;52.956;6.796;2023-04-06T13:30:20;30.88;;;23.20;;
55202;SDS011;41077;52.956;6.796;2023-04-06T13:32:46;30.30;;;22.35;;
55202;SDS011;41077;52.956;6.796;2023-04-06T13:35:12;34.50;;;23.65;;
55202;SDS011;41077;52.956;6.796;2023-04-06T13:37:38;29.20;;;22.30;;
55202;SDS011;41077;52.956;6.796;2023-04-06T13:40:04;34.20;;;23.98;;
55202;SDS011;41077;52.956;6.796;2023-04-06T13:42:31;33.88;;;24.55;;
55202;SDS011;41077;52.956;6.796;2023-04-06T13:44:57;33.13;;;24.20;;
55202;SDS011;41077;52.956;6.796;2023-04-06T13:47:24;32.22;;;22.23;;
55202;SDS011;41077;52.956;6.796;2023-04-06T13:49:50;33.97;;;23.58;;
55202;SDS011;41077;52.956;6.796;2023-04-06T13:52:20;32.95;;;23.02;;
55202;SDS011;41077;52.956;6.796;2023-04-06T13:54:46;32.20;;;22.58;;
55202;SDS011;41077;52.956;6.796;2023-04-06T13:57:12;30.20;;;21.33;;
55202;SDS011;41077;52.956;6.796;2023-04-06T13:59:38;28.70;;;21.38;;
55202;SDS011;41077;52.956;6.796;2023-04-06T14:02:05;26.92;;;20.52;;
55202;SDS011;41077;52.956;6.796;2023-04-06T14:04:32;26.58;;;18.98;;
55202;SDS011;41077;52.956;6.796;2023-04-06T14:06:58;28.80;;;19.73;;
55202;SDS011;41077;52.956;6.796;2023-04-06T14:09:25;26.30;;;20.67;;
55202;SDS011;41077;52.956;6.796;2023-04-06T14:11:51;28.55;;;20.00;;
55202;SDS011;41077;52.956;6.796;2023-04-06T14:14:17;30.08;;;20.65;;
55202;SDS011;41077;52.956;6.796;2023-04-06T14:16:43;31.25;;;20.00;;
55202;SDS011;41077;52.956;6.796;2023-04-06T14:19:10;30.90;;;21.13;;
55202;SDS011;41077;52.956;6.796;2023-04-06T14:21:40;28.17;;;20.60;;
55202;SDS011;41077;52.956;6.796;2023-04-06T14:24:06;29.67;;;20.55;;
55202;SDS011;41077;52.956;6.796;2023-04-06T14:26:36;29.23;;;20.77;;
55202;SDS011;41077;52.956;6.796;2023-04-06T14:29:02;29.38;;;20.30;;